Time;durP1;ratioP1;P1;durP2;ratioP2;P2;SDS_P1;SDS_P2;PMS_P1;PMS_P2;Temp;Humidity;BMP_temperature;BMP_pressure;BME280_temperature;BME280_humidity;BME280_pressure;Samples;Min_cycle;Max_cycle;Signal;HPM_P1;HPM_P2
2024/03/06 00:02:37;;;;;;;23.52;12.98;;;6.50;99.90;;;;;;6211292;28;20068;-90
2024/03/06 00:05:39;;;;;;;23.73;12.95;;;6.50;99.90;;;;;;6234125;28;20050;-91
2024/03/06 00:08:41;;;;;;;23.27;12.63;;;6.50;99.90;;;;;;6234565;28;20071;-90
2024/03/06 00:11:43;;;;;;;24.48;13.88;;;6.50;99.90;;;;;;6204967;28;20050;-90
2024/03/06 00:14:45;;;;;;;23.98;12.93;;;6.60;99.90;;;;;;6195259;28;20057;-91
2024/03/06 00:17:47;;;;;;;24.77;13.27;;;7.00;99.90;;;;;;6230071;28;20410;-92
2024/03/06 00:20:49;;;;;;;25.08;13.07;;;6.60;99.90;;;;;;6208163;28;20053;-93
2024/03/06 00:23:50;;;;;;;24.02;13.95;;;6.60;99.90;;;;;;6199749;28;20507;-93
2024/03/06 00:26:53;;;;;;;25.33;14.50;;;6.60;99.90;;;;;;6234191;28;20413;-92
2024/03/06 00:29:55;;;;;;;27.40;15.02;;;6.60;99.90;;;;;;6206574;28;20393;-93
2024/03/06 00:32:57;;;;;;;26.40;14.98;;;6.60;99.90;;;;;;6233815;28;20053;-91
2024/03/06 00:35:58;;;;;;;24.17;13.98;;;6.60;99.90;;;;;;6235959;28;20088;-90
2024/03/06 00:39:00;;;;;;;25.20;13.98;;;6.60;99.90;;;;;;6241481;28;20051;-93
2024/03/06 00:42:02;;;;;;;27.40;14.73;;;6.70;99.90;;;;;;6236277;28;20053;-92
2024/03/06 00:45:10;;;;;;;28.75;15.45;;;6.70;99.90;;;;;;6228030;28;20363;-93
2024/03/06 00:48:12;;;;;;;27.60;15.07;;;6.70;99.90;;;;;;6248231;28;20057;-92
2024/03/06 00:51:14;;;;;;;26.77;14.85;;;6.60;99.90;;;;;;6249495;28;20053;-91
2024/03/06 00:54:16;;;;;;;28.30;15.38;;;6.80;99.90;;;;;;6252638;28;20120;-91
2024/03/06 00:57:18;;;;;;;23.73;14.65;;;6.60;99.90;;;;;;6267610;28;20422;-93
2024/03/06 01:00:20;;;;;;;27.60;15.60;;;6.60;99.90;;;;;;6237823;28;20049;-90
2024/03/06 01:03:22;;;;;;;29.70;15.82;;;6.60;99.90;;;;;;6240350;28;20133;-92
2024/03/06 01:06:24;;;;;;;29.77;15.48;;;6.60;99.90;;;;;;6240624;28;20132;-90
2024/03/06 01:09:27;;;;;;;29.23;16.17;;;6.40;99.90;;;;;;6239403;28;20448;-91
2024/03/06 01:12:28;;;;;;;29.75;16.50;;;7.00;99.90;;;;;;6241055;28;20050;-93
2024/03/06 01:15:30;;;;;;;29.73;16.73;;;6.40;99.90;;;;;;6234062;28;20428;-91
2024/03/06 01:18:32;;;;;;;31.55;15.98;;;6.30;99.90;;;;;;6239878;28;20187;-91
2024/03/06 01:21:34;;;;;;;29.58;16.70;;;6.30;99.90;;;;;;6240313;28;20049;-92
2024/03/06 01:24:36;;;;;;;32.25;16.88;;;6.10;99.90;;;;;;6256049;28;20053;-91
2024/03/06 01:27:37;;;;;;;28.90;15.80;;;5.90;99.90;;;;;;6260351;28;20050;-93
2024/03/06 01:30:39;;;;;;;26.60;14.82;;;6.30;99.90;;;;;;6223689;28;20069;-91
2024/03/06 01:33:42;;;;;;;31.45;15.98;;;5.80;99.90;;;;;;6241308;28;20057;-90
2024/03/06 01:36:43;;;;;;;30.58;16.88;;;6.00;99.90;;;;;;6236242;28;20054;-91
2024/03/06 01:39:45;;;;;;;31.75;15.90;;;5.60;99.90;;;;;;6232763;28;20060;-91
2024/03/06 01:42:48;;;;;;;33.65;17.38;;;5.60;99.90;;;;;;6225905;28;20065;-91
2024/03/06 01:45:50;;;;;;;32.42;17.10;;;5.40;99.90;;;;;;6237082;28;20050;-92
2024/03/06 01:48:52;;;;;;;27.35;15.45;;;5.30;99.90;;;;;;6231180;28;20058;-92
2024/03/06 01:51:53;;;;;;;33.72;15.68;;;5.20;99.90;;;;;;6234169;28;20058;-90
2024/03/06 01:54:56;;;;;;;31.25;16.75;;;5.00;99.90;;;;;;6226485;28;20057;-90
2024/03/06 01:57:58;;;;;;;35.60;17.13;;;5.00;99.90;;;;;;6222305;28;20568;-90
2024/03/06 02:00:59;;;;;;;31.85;16.25;;;5.50;99.90;;;;;;6208799;28;20061;-90
2024/03/06 02:04:01;;;;;;;33.80;16.80;;;4.90;99.90;;;;;;6220171;28;20057;-90
2024/03/06 02:07:03;;;;;;;35.30;17.17;;;5.30;99.90;;;;;;6219012;28;20072;-90
2024/03/06 02:10:06;;;;;;;29.17;15.57;;;4.80;99.90;;;;;;6218604;28;20061;-90
2024/03/06 02:13:09;;;;;;;35.45;16.80;;;4.80;99.90;;;;;;6218660;28;20054;-90
2024/03/06 02:16:11;;;;;;;33.35;17.77;;;4.70;99.90;;;;;;6224400;28;20509;-89
2024/03/06 02:19:14;;;;;;;34.28;17.20;;;4.70;99.90;;;;;;6237231;28;20051;-89
2024/03/06 02:22:15;;;;;;;36.10;18.95;;;4.70;99.90;;;;;;6243176;28;20777;-89
2024/03/06 02:25:19;;;;;;;35.83;18.60;;;4.50;99.90;;;;;;6248077;28;20524;-89
2024/03/06 02:28:20;;;;;;;33.42;16.90;;;4.50;99.90;;;;;;6244792;28;20045;-90
2024/03/06 02:31:22;;;;;;;31.85;16.52;;;4.40;99.90;;;;;;6233535;28;20519;-89
2024/03/06 02:34:24;;;;;;;37.30;18.40;;;4.40;99.90;;;;;;6227351;28;20053;-89
2024/03/06 02:37:26;;;;;;;34.47;17.13;;;4.40;99.90;;;;;;6227528;28;20057;-90
2024/03/06 02:40:28;;;;;;;33.35;17.15;;;4.30;99.90;;;;;;6249334;28;20069;-89
2024/03/06 02:47:22;;;;;;;34.72;18.30;;;4.30;99.90;;;;;;6203098;28;20390;-88
2024/03/06 02:50:24;;;;;;;37.88;18.33;;;4.30;99.90;;;;;;6225523;28;20054;-89
2024/03/06 02:53:27;;;;;;;34.05;17.23;;;4.30;99.90;;;;;;6226931;28;20465;-89
2024/03/06 02:56:29;;;;;;;35.65;17.83;;;4.30;99.90;;;;;;6227050;28;20155;-89
2024/03/06 02:59:31;;;;;;;35.58;18.08;;;4.30;99.90;;;;;;6209635;28;20057;-88
2024/03/06 03:02:33;;;;;;;35.58;17.23;;;4.30;99.90;;;;;;6226156;28;20132;-89
2024/03/06 03:05:34;;;;;;;30.15;15.40;;;4.30;99.90;;;;;;6226800;28;20060;-89
2024/03/06 03:08:36;;;;;;;33.15;15.57;;;4.20;99.90;;;;;;6225705;28;20049;-88
2024/03/06 03:11:38;;;;;;;33.08;15.90;;;4.30;99.90;;;;;;6226187;28;20065;-90
2024/03/06 03:14:39;;;;;;;31.17;15.10;;;4.40;99.90;;;;;;6205832;28;20340;-89
2024/03/06 03:17:41;;;;;;;39.65;17.27;;;4.40;99.90;;;;;;6225951;28;20057;-87
2024/03/06 03:20:43;;;;;;;38.67;17.90;;;4.50;99.90;;;;;;6245938;28;20049;-89
2024/03/06 03:23:44;;;;;;;35.42;17.30;;;4.60;99.90;;;;;;6226388;28;20054;-90
2024/03/06 03:26:46;;;;;;;37.78;16.75;;;4.70;99.90;;;;;;6225026;28;20054;-90
2024/03/06 03:29:48;;;;;;;33.78;16.40;;;4.70;99.90;;;;;;6210559;28;20061;-89
2024/03/06 03:32:49;;;;;;;35.30;16.45;;;4.70;99.90;;;;;;6233364;28;20060;-90
2024/03/06 03:35:51;;;;;;;32.28;15.32;;;5.00;99.90;;;;;;6233376;28;20068;-90
2024/03/06 03:38:54;;;;;;;30.40;15.57;;;5.00;99.90;;;;;;6232151;28;20055;-90
2024/03/06 03:41:55;;;;;;;32.80;15.45;;;5.00;99.90;;;;;;6233520;28;20056;-89
2024/03/06 03:44:57;;;;;;;35.42;17.17;;;5.10;99.90;;;;;;6223655;28;20499;-88
2024/03/06 03:47:59;;;;;;;36.85;17.33;;;5.10;99.90;;;;;;6234118;28;20058;-90
2024/03/06 03:51:01;;;;;;;33.28;15.93;;;5.20;99.90;;;;;;6233111;28;20099;-88
2024/03/06 03:54:03;;;;;;;30.25;15.30;;;5.60;99.90;;;;;;6232645;28;20126;-89
2024/03/06 03:57:06;;;;;;;35.08;16.90;;;5.30;99.90;;;;;;6232464;28;20064;-89
2024/03/06 04:00:10;;;;;;;36.58;17.48;;;5.70;99.90;;;;;;6221682;28;20045;-89
2024/03/06 04:03:13;;;;;;;38.00;18.27;;;5.40;99.90;;;;;;6233190;28;20057;-89
2024/03/06 04:06:14;;;;;;;34.63;17.33;;;5.50;99.90;;;;;;6232988;28;20056;-90
2024/03/06 04:09:16;;;;;;;36.15;18.15;;;5.60;99.90;;;;;;6234131;28;20060;-89
2024/03/06 04:15:29;;;;;;;40.72;18.15;;;5.60;99.90;;;;;;6247164;28;20052;-91
2024/03/06 04:18:33;;;;;;;38.40;18.65;;;5.60;99.90;;;;;;6274635;28;20045;-90
2024/03/06 04:21:35;;;;;;;40.47;19.50;;;5.60;99.90;;;;;;6270932;28;20492;-90
2024/03/06 04:24:37;;;;;;;39.53;19.77;;;5.60;99.90;;;;;;6265694;28;20056;-90
2024/03/06 04:27:38;;;;;;;35.88;18.27;;;5.60;99.90;;;;;;6257402;28;20064;-90
2024/03/06 04:30:40;;;;;;;37.35;18.65;;;5.70;99.90;;;;;;6233556;28;20053;-91
2024/03/06 04:33:42;;;;;;;38.10;19.02;;;5.70;99.90;;;;;;6251615;28;20049;-90
2024/03/06 04:36:44;;;;;;;41.67;20.00;;;5.70;99.90;;;;;;6274067;28;20537;-90
2024/03/06 04:39:45;;;;;;;34.85;18.35;;;5.60;99.90;;;;;;6262125;28;20045;-90
2024/03/06 04:42:47;;;;;;;39.70;19.75;;;5.70;99.90;;;;;;6272619;28;20053;-88
2024/03/06 04:45:49;;;;;;;37.85;17.88;;;5.70;99.90;;;;;;6269578;23;20053;-83
2024/03/06 04:48:50;;;;;;;38.65;19.05;;;5.70;99.90;;;;;;6220528;28;20062;-82
2024/03/06 04:51:52;;;;;;;37.22;18.65;;;5.80;99.90;;;;;;6243994;28;20057;-82
2024/03/06 04:54:54;;;;;;;37.75;18.75;;;5.80;99.90;;;;;;6220339;28;20393;-83
2024/03/06 04:57:55;;;;;;;37.72;18.33;;;5.80;99.90;;;;;;6239960;28;20100;-82
2024/03/06 05:00:57;;;;;;;37.17;19.10;;;5.80;99.90;;;;;;6209359;28;20057;-82
2024/03/06 05:03:59;;;;;;;39.83;17.90;;;5.80;99.90;;;;;;6244151;28;20060;-84
2024/03/06 05:07:18;;;;;;;43.53;19.70;;;5.80;99.90;;;;;;6219477;28;20037;-82
2024/03/06 05:10:37;;;;;;;39.50;19.13;;;5.80;99.90;;;;;;6219692;28;20049;-82
2024/03/06 05:13:56;;;;;;;40.10;19.63;;;5.80;99.90;;;;;;6265564;28;20060;-82
2024/03/06 05:17:16;;;;;;;35.87;18.80;;;5.80;99.90;;;;;;6248458;28;20255;-82
2024/03/06 05:20:35;;;;;;;39.47;18.08;;;5.70;99.90;;;;;;6226510;28;20120;-81
2024/03/06 05:23:54;;;;;;;36.13;18.52;;;5.70;99.90;;;;;;6247996;28;20036;-82
2024/03/06 05:27:16;;;;;;;38.50;17.87;;;5.80;99.90;;;;;;6263310;28;20484;-82
2024/03/06 05:30:35;;;;;;;39.05;18.77;;;5.80;99.90;;;;;;6246829;28;20034;-82
2024/03/06 05:33:54;;;;;;;36.57;19.20;;;5.80;99.90;;;;;;6256064;28;20041;-83
2024/03/06 05:37:14;;;;;;;35.80;18.25;;;5.90;99.90;;;;;;6242435;28;20481;-82
2024/03/06 05:40:37;;;;;;;37.87;19.03;;;5.90;99.90;;;;;;6241215;28;20041;-82
2024/03/06 05:43:56;;;;;;;34.25;17.48;;;5.90;99.90;;;;;;6228314;28;20139;-82
2024/03/06 05:47:15;;;;;;;40.08;18.98;;;5.90;99.90;;;;;;6272567;28;20037;-82
2024/03/06 05:50:35;;;;;;;36.90;18.07;;;5.90;99.90;;;;;;6259800;28;20053;-83
2024/03/06 05:53:54;;;;;;;39.30;18.87;;;5.90;99.90;;;;;;6244231;28;20042;-82
2024/03/06 05:57:15;;;;;;;43.40;19.97;;;5.80;99.90;;;;;;6243751;28;20258;-82
2024/03/06 06:00:34;;;;;;;39.65;18.92;;;5.90;99.90;;;;;;6249976;28;20032;-83
2024/03/06 06:03:36;;;;;;;36.85;17.88;;;5.90;99.90;;;;;;6261264;28;20052;-83
2024/03/06 06:06:38;;;;;;;39.33;19.67;;;6.00;99.90;;;;;;6279822;28;20044;-83
2024/03/06 06:09:40;;;;;;;41.00;19.77;;;6.00;99.90;;;;;;6253878;28;20053;-83
2024/03/06 06:12:42;;;;;;;40.17;19.17;;;6.00;99.90;;;;;;6294882;28;20049;-82
2024/03/06 06:15:43;;;;;;;39.88;19.73;;;6.00;99.90;;;;;;6264142;28;20094;-83
2024/03/06 06:18:45;;;;;;;83.25;36.50;;;6.00;99.90;;;;;;6284531;28;20051;-83
2024/03/06 06:21:47;;;;;;;42.55;19.67;;;6.00;99.90;;;;;;6273933;28;20049;-83
2024/03/06 06:24:49;;;;;;;40.97;20.13;;;6.10;99.90;;;;;;6255442;28;20053;-84
2024/03/06 06:27:51;;;;;;;41.75;20.13;;;6.20;99.90;;;;;;6273144;28;20648;-84
2024/03/06 06:30:52;;;;;;;37.67;19.08;;;6.10;99.90;;;;;;6263940;28;20583;-84
2024/03/06 06:33:54;;;;;;;42.45;20.38;;;6.20;99.90;;;;;;6248957;28;20049;-83
2024/03/06 06:36:56;;;;;;;45.40;20.65;;;6.20;99.90;;;;;;6272897;28;20063;-83
2024/03/06 06:39:59;;;;;;;45.80;20.60;;;6.20;99.90;;;;;;6271297;28;20056;-84
2024/03/06 06:43:00;;;;;;;44.00;20.75;;;6.30;99.90;;;;;;6272455;28;20049;-83
2024/03/06 06:46:04;;;;;;;38.08;19.58;;;6.30;99.90;;;;;;6250854;28;20530;-86
2024/03/06 06:49:06;;;;;;;44.58;21.27;;;6.30;99.90;;;;;;6268033;28;20057;-85
2024/03/06 06:52:08;;;;;;;40.92;21.00;;;6.30;99.90;;;;;;6251587;28;20072;-86
2024/03/06 06:55:11;;;;;;;40.38;19.98;;;6.30;99.90;;;;;;6260991;28;20053;-86
2024/03/06 06:58:13;;;;;;;46.75;21.30;;;6.40;99.90;;;;;;6254427;28;20052;-80
2024/03/06 07:01:19;;;;;;;47.45;22.38;;;6.50;99.90;;;;;;6247907;28;20052;-86
2024/03/06 07:04:22;;;;;;;50.90;22.25;;;6.50;99.90;;;;;;6271486;28;20056;-86
2024/03/06 07:07:23;;;;;;;45.05;22.35;;;6.60;99.90;;;;;;6249354;28;20057;-84
2024/03/06 07:10:26;;;;;;;55.15;25.10;;;6.60;99.90;;;;;;6246734;28;20576;-85
2024/03/06 07:13:27;;;;;;;50.38;23.80;;;6.70;99.90;;;;;;6237507;28;20586;-86
2024/03/06 07:16:29;;;;;;;52.40;25.00;;;6.70;99.90;;;;;;6246870;28;20059;-83
2024/03/06 07:19:31;;;;;;;53.95;25.75;;;6.80;99.90;;;;;;6249486;28;20143;-87
2024/03/06 07:22:33;;;;;;;59.67;27.88;;;6.90;99.90;;;;;;6247694;28;20046;-83
2024/03/06 07:25:36;;;;;;;56.28;26.90;;;7.00;99.90;;;;;;6250024;28;20539;-84
2024/03/06 07:28:37;;;;;;;57.85;27.48;;;7.20;99.90;;;;;;6231119;28;20550;-85
2024/03/06 07:31:39;;;;;;;52.00;25.05;;;7.30;99.90;;;;;;6248925;28;20175;-85
2024/03/06 07:34:41;;;;;;;56.58;26.75;;;7.40;99.90;;;;;;6247867;28;20111;-84
2024/03/06 07:37:44;;;;;;;54.88;26.65;;;7.40;99.90;;;;;;6246416;28;20538;-85
2024/03/06 07:40:46;;;;;;;52.45;26.25;;;7.50;99.90;;;;;;6247056;28;20058;-83
2024/03/06 07:43:48;;;;;;;55.08;27.17;;;7.70;99.90;;;;;;6242858;28;20461;-84
2024/03/06 07:46:50;;;;;;;53.83;25.73;;;7.90;99.90;;;;;;6272227;28;20045;-85
2024/03/06 07:49:52;;;;;;;50.40;24.83;;;8.20;99.90;;;;;;6271898;28;20072;-86
2024/03/06 07:52:55;;;;;;;41.65;17.08;;;8.70;99.90;;;;;;6252903;28;20041;-85
2024/03/06 07:55:56;;;;;;;39.28;16.10;;;9.10;99.90;;;;;;6272567;28;20155;-85
2024/03/06 07:58:58;;;;;;;40.03;17.17;;;9.40;97.30;;;;;;6261448;28;20049;-85
2024/03/06 08:02:00;;;;;;;42.10;16.45;;;9.40;98.90;;;;;;6284381;28;20059;-84
2024/03/06 08:05:02;;;;;;;41.55;17.10;;;9.20;99.90;;;;;;6272775;28;20496;-84
2024/03/06 08:08:04;;;;;;;52.67;23.27;;;9.00;93.90;;;;;;6268195;28;20057;-84
2024/03/06 08:11:06;;;;;;;52.65;24.27;;;9.00;99.90;;;;;;6287686;28;20135;-89
2024/03/06 08:14:08;;;;;;;53.33;26.17;;;8.80;99.90;;;;;;6267334;28;20049;-87
2024/03/06 08:17:10;;;;;;;60.28;27.27;;;8.70;99.90;;;;;;6262522;28;20532;-92
2024/03/06 08:20:12;;;;;;;54.15;28.08;;;8.60;99.90;;;;;;6290857;28;20079;-89
2024/03/06 08:23:13;;;;;;;59.70;29.92;;;8.50;99.90;;;;;;6262862;28;20644;-89
2024/03/06 08:26:15;;;;;;;58.72;28.45;;;8.50;99.90;;;;;;6289586;28;20159;-84
2024/03/06 08:29:17;;;;;;;61.30;28.95;;;8.50;99.90;;;;;;6279503;28;20088;-88
2024/03/06 08:32:19;;;;;;;64.40;30.83;;;8.50;99.90;;;;;;6252204;28;20056;-89
2024/03/06 08:35:21;;;;;;;58.92;29.13;;;8.40;99.90;;;;;;6273151;28;20108;-94
2024/03/06 08:38:23;;;;;;;62.75;29.77;;;8.40;99.90;;;;;;6275728;28;20059;-86
2024/03/06 08:41:25;;;;;;;62.78;29.95;;;8.40;99.90;;;;;;6292711;28;20414;-90
2024/03/06 08:44:27;;;;;;;59.13;29.42;;;8.50;99.90;;;;;;6274560;28;20057;-91
2024/03/06 08:47:29;;;;;;;67.13;30.35;;;8.60;99.90;;;;;;6296140;28;20183;-86
2024/03/06 08:50:31;;;;;;;68.28;30.35;;;8.60;99.90;;;;;;6271021;28;20052;-85
2024/03/06 08:53:33;;;;;;;63.28;30.77;;;8.70;99.90;;;;;;6253211;28;20060;-89
2024/03/06 08:56:35;;;;;;;61.42;29.27;;;8.80;99.90;;;;;;6270801;28;20064;-85
2024/03/06 08:59:37;;;;;;;59.13;28.88;;;8.70;99.90;;;;;;6255489;28;20049;-90
2024/03/06 09:02:38;;;;;;;59.22;28.85;;;8.80;99.90;;;;;;6256312;28;20052;-88
2024/03/06 09:05:41;;;;;;;59.28;28.85;;;8.80;99.90;;;;;;6286292;28;20419;-82
2024/03/06 09:08:43;;;;;;;65.35;29.95;;;8.80;99.90;;;;;;6282903;28;20479;-82
2024/03/06 09:11:44;;;;;;;66.50;29.77;;;8.80;99.90;;;;;;6280194;28;20045;-88
2024/03/06 09:14:46;;;;;;;68.90;30.77;;;8.70;99.90;;;;;;6250572;28;20045;-88
2024/03/06 09:17:48;;;;;;;63.38;29.38;;;8.60;99.90;;;;;;6260051;28;20112;-89
2024/03/06 09:20:50;;;;;;;58.28;28.10;;;8.80;99.90;;;;;;6271008;28;20063;-86
2024/03/06 09:23:52;;;;;;;62.47;28.88;;;8.80;99.90;;;;;;6279089;28;20048;-86
2024/03/06 09:26:53;;;;;;;66.47;30.05;;;8.70;99.90;;;;;;6292612;28;20523;-86
2024/03/06 09:29:56;;;;;;;64.95;29.35;;;8.70;99.90;;;;;;6267421;28;21230;-81
2024/03/06 09:32:57;;;;;;;58.17;25.90;;;9.00;99.90;;;;;;6292157;28;20055;-84
2024/03/06 09:35:59;;;;;;;54.92;25.35;;;9.30;98.50;;;;;;6256760;28;20060;-84
2024/03/06 09:39:04;;;;;;;60.30;26.88;;;9.70;99.90;;;;;;6273095;28;20052;-84
2024/03/06 09:42:07;;;;;;;56.17;25.45;;;10.00;95.20;;;;;;6273423;28;20519;-85
2024/03/06 09:45:09;;;;;;;44.10;16.95;;;10.50;96.60;;;;;;6250357;28;20182;-85
2024/03/06 09:48:10;;;;;;;45.22;16.17;;;10.90;84.20;;;;;;6273030;28;20044;-84
2024/03/06 09:51:13;;;;;;;43.22;15.57;;;10.90;80.70;;;;;;6255116;28;20411;-84
2024/03/06 09:54:15;;;;;;;43.97;16.02;;;10.80;62.00;;;;;;6254832;28;20048;-84
2024/03/06 09:57:21;;;;;;;45.50;16.90;;;10.60;76.10;;;;;;6255638;28;20048;-85
2024/03/06 10:00:24;;;;;;;40.78;15.30;;;10.70;64.80;;;;;;6229632;28;20049;-86
2024/03/06 10:03:26;;;;;;;39.97;16.17;;;10.80;63.70;;;;;;6264262;28;20136;-84
2024/03/06 10:06:30;;;;;;;40.50;17.38;;;11.00;72.70;;;;;;6278113;28;20057;-85
2024/03/06 10:09:33;;;;;;;42.13;16.70;;;11.20;72.80;;;;;;6258503;28;20057;-87
2024/03/06 10:12:35;;;;;;;38.75;15.40;;;11.40;53.90;;;;;;6275451;28;20056;-88
2024/03/06 10:15:37;;;;;;;39.88;15.25;;;11.60;51.70;;;;;;6248002;28;20079;-87
2024/03/06 10:18:39;;;;;;;29.30;13.23;;;12.90;45.60;;;;;;6287034;28;20052;-88
2024/03/06 10:21:40;;;;;;;28.30;13.52;;;14.10;1.00;;;;;;6264273;28;20064;-89
2024/03/06 10:24:42;;;;;;;32.58;13.95;;;14.70;1.00;;;;;;6274519;28;20075;-89
2024/03/06 10:27:44;;;;;;;31.70;15.65;;;15.20;1.00;;;;;;6262394;28;20049;-89
2024/03/06 10:30:45;;;;;;;31.30;15.95;;;16.00;1.00;;;;;;6244459;28;20049;-83
2024/03/06 10:33:47;;;;;;;33.65;15.38;;;16.20;1.00;;;;;;6291737;28;20056;-87
2024/03/06 10:36:49;;;;;;;26.67;13.65;;;16.00;1.00;;;;;;6282929;28;20044;-90
2024/03/06 10:39:51;;;;;;;30.77;14.85;;;15.80;1.00;;;;;;6262482;28;20552;-89
2024/03/06 10:42:53;;;;;;;26.73;12.32;;;15.00;1.00;;;;;;6277421;28;20056;-91
2024/03/06 10:45:56;;;;;;;28.67;14.45;;;14.60;1.00;;;;;;6256833;28;20084;-91
2024/03/06 10:48:58;;;;;;;29.17;14.50;;;15.30;1.00;;;;;;6257784;28;20103;-93
2024/03/06 10:52:00;;;;;;;33.65;17.13;;;16.50;1.00;;;;;;6255961;28;20052;-90
2024/03/06 10:55:02;;;;;;;31.42;16.13;;;17.10;1.00;;;;;;6261907;28;20310;-85
2024/03/06 10:58:09;;;;;;;26.15;13.98;;;17.80;1.00;;;;;;6252600;28;20064;-90
2024/03/06 11:01:19;;;;;;;22.73;11.25;;;17.60;1.00;;;;;;6263497;28;20049;-90
2024/03/06 11:04:21;;;;;;;18.80;10.77;;;17.40;1.00;;;;;;6257095;28;20815;-87
2024/03/06 11:07:22;;;;;;;21.70;11.82;;;17.00;1.00;;;;;;6280276;28;20040;-90
2024/03/06 11:10:24;;;;;;;22.75;11.63;;;16.20;1.00;;;;;;6263478;28;20055;-89
2024/03/06 11:13:26;;;;;;;25.02;11.20;;;16.10;1.00;;;;;;6236538;28;20049;-87
2024/03/06 11:16:29;;;;;;;28.58;11.70;;;15.20;1.00;;;;;;6284016;28;20060;-86
2024/03/06 11:19:31;;;;;;;22.77;10.43;;;15.20;1.00;;;;;;6254181;28;20056;-89
2024/03/06 11:22:32;;;;;;;21.05;11.00;;;15.10;1.00;;;;;;6283215;28;20198;-88
2024/03/06 11:25:34;;;;;;;21.73;10.23;;;14.90;1.00;;;;;;6253093;28;20057;-86
2024/03/06 11:28:37;;;;;;;20.30;9.77;;;15.80;1.00;;;;;;6235218;28;20424;-87
2024/03/06 11:31:39;;;;;;;24.27;10.85;;;15.60;1.00;;;;;;6254822;28;20053;-89
2024/03/06 11:34:41;;;;;;;22.45;10.57;;;15.20;1.00;;;;;;6277497;28;20075;-92
2024/03/06 11:37:42;;;;;;;19.90;10.05;;;15.20;1.00;;;;;;6289720;28;20519;-91
2024/03/06 11:40:44;;;;;;;17.98;9.00;;;16.00;1.00;;;;;;6272553;28;20411;-89
2024/03/06 11:43:46;;;;;;;15.50;8.05;;;16.90;1.00;;;;;;6242054;28;20049;-93
2024/03/06 11:46:48;;;;;;;18.90;9.43;;;18.00;1.00;;;;;;6276848;28;20059;-91
2024/03/06 11:49:50;;;;;;;20.30;9.57;;;17.40;1.00;;;;;;6252064;28;20072;-87
2024/03/06 11:52:51;;;;;;;24.20;12.63;;;17.40;1.00;;;;;;6268468;28;20511;-90
2024/03/06 11:55:53;;;;;;;23.80;12.40;;;17.90;1.00;;;;;;6280020;28;20508;-89
2024/03/06 11:58:55;;;;;;;23.92;12.38;;;18.60;1.00;;;;;;6254595;28;20080;-87
2024/03/06 12:01:57;;;;;;;23.20;11.55;;;18.90;1.00;;;;;;6253989;28;20072;-92
2024/03/06 12:04:58;;;;;;;22.52;11.07;;;18.00;1.00;;;;;;6274795;28;20069;-88
2024/03/06 12:08:03;;;;;;;20.65;9.93;;;16.60;1.00;;;;;;6253783;28;20057;-87
2024/03/06 12:11:05;;;;;;;22.52;10.48;;;15.80;1.00;;;;;;6256639;28;20050;-92
2024/03/06 12:14:09;;;;;;;20.55;9.68;;;16.20;1.00;;;;;;6237305;28;20078;-87
2024/03/06 12:17:12;;;;;;;17.15;8.55;;;16.90;1.00;;;;;;6257179;28;20049;-88
2024/03/06 12:20:18;;;;;;;13.20;6.90;;;17.20;1.00;;;;;;6253092;28;20060;-91
2024/03/06 12:23:25;;;;;;;13.68;6.65;;;17.20;1.00;;;;;;6252426;28;20049;-88
2024/03/06 12:26:27;;;;;;;15.55;7.10;;;16.60;1.00;;;;;;6255018;28;20045;-91
2024/03/06 12:29:32;;;;;;;14.10;6.30;;;16.00;1.00;;;;;;6235358;28;20064;-89
2024/03/06 12:32:34;;;;;;;11.80;5.97;;;15.50;1.00;;;;;;6266582;28;20405;-88
2024/03/06 12:35:36;;;;;;;13.82;6.20;;;15.00;1.00;;;;;;6269551;28;20049;-84
2024/03/06 12:38:37;;;;;;;15.35;8.82;;;14.80;1.00;;;;;;6265358;28;20336;-89
2024/03/06 12:41:40;;;;;;;16.65;9.75;;;14.70;1.00;;;;;;6255364;28;20075;-87
2024/03/06 12:44:41;;;;;;;14.57;8.93;;;14.40;1.00;;;;;;6229141;28;20057;-83
2024/03/06 12:47:43;;;;;;;13.88;8.27;;;14.20;1.00;;;;;;6262417;28;20053;-85
2024/03/06 12:50:51;;;;;;;15.80;8.82;;;14.10;1.00;;;;;;6265533;28;20045;-88
2024/03/06 12:53:52;;;;;;;15.43;7.75;;;14.30;1.00;;;;;;6269164;28;20404;-91
2024/03/06 12:56:57;;;;;;;13.82;8.25;;;14.10;1.00;;;;;;6264916;28;20323;-92
2024/03/06 12:59:59;;;;;;;14.40;8.43;;;14.10;1.00;;;;;;6247579;28;20068;-83
2024/03/06 13:03:00;;;;;;;15.95;8.95;;;14.30;1.00;;;;;;6263863;28;20496;-88
2024/03/06 13:06:03;;;;;;;15.55;9.20;;;15.40;1.00;;;;;;6266833;28;20068;-89
2024/03/06 13:09:04;;;;;;;15.93;9.40;;;15.30;1.00;;;;;;6255683;28;20053;-89
2024/03/06 13:12:06;;;;;;;18.25;10.68;;;15.00;1.00;;;;;;6263845;28;20057;-85
2024/03/06 13:15:08;;;;;;;18.58;11.48;;;14.60;1.00;;;;;;6258711;28;20064;-88
2024/03/06 13:18:09;;;;;;;18.98;10.30;;;14.30;1.00;;;;;;6260009;28;20526;-82
2024/03/06 13:21:11;;;;;;;16.42;8.77;;;14.00;1.00;;;;;;6265925;28;20049;-87
2024/03/06 13:24:13;;;;;;;15.85;8.77;;;13.70;1.00;;;;;;6267183;28;20078;-86
2024/03/06 13:27:14;;;;;;;17.42;10.27;;;13.60;1.00;;;;;;6266242;28;20053;-85
2024/03/06 13:30:16;;;;;;;20.15;10.13;;;13.60;1.00;;;;;;6243119;28;20133;-83
2024/03/06 13:33:18;;;;;;;17.55;9.63;;;13.50;1.00;;;;;;6264055;28;20525;-84
2024/03/06 13:36:20;;;;;;;14.77;8.95;;;13.40;1.00;;;;;;6261975;28;20140;-83
2024/03/06 13:39:21;;;;;;;13.32;8.80;;;13.30;1.00;;;;;;6242084;28;20061;-83
2024/03/06 13:42:23;;;;;;;14.68;8.82;;;13.30;1.00;;;;;;6241337;28;20424;-84
2024/03/06 13:45:26;;;;;;;16.95;8.70;;;13.30;1.00;;;;;;6228891;28;20564;-83
2024/03/06 13:48:28;;;;;;;15.68;8.85;;;13.30;1.00;;;;;;6249485;28;20064;-83
2024/03/06 13:51:30;;;;;;;16.20;9.90;;;13.30;1.00;;;;;;6243564;28;20065;-83
2024/03/06 13:54:31;;;;;;;14.77;8.80;;;13.10;1.00;;;;;;6265141;28;20045;-83
2024/03/06 13:57:33;;;;;;;14.40;8.10;;;13.10;1.00;;;;;;6243605;28;20203;-83
2024/03/06 14:00:35;;;;;;;17.05;9.57;;;13.20;1.00;;;;;;6233212;28;20080;-83
2024/03/06 14:03:39;;;;;;;17.35;9.43;;;13.20;1.00;;;;;;6250593;28;20049;-89
2024/03/06 14:06:40;;;;;;;20.80;11.43;;;13.10;1.00;;;;;;6248687;28;20092;-92
2024/03/06 14:09:42;;;;;;;21.00;11.55;;;12.90;1.00;;;;;;6231389;28;20427;-90
2024/03/06 14:12:44;;;;;;;21.35;12.90;;;12.80;1.00;;;;;;6245712;28;20049;-87
2024/03/06 14:15:47;;;;;;;23.23;12.00;;;12.70;1.00;;;;;;6214157;28;20180;-89
2024/03/06 14:18:49;;;;;;;19.52;10.75;;;12.60;1.00;;;;;;6224289;28;20568;-87
2024/03/06 14:21:51;;;;;;;19.92;10.75;;;12.50;1.00;;;;;;6255685;28;20049;-86
2024/03/06 14:24:53;;;;;;;19.15;11.13;;;12.50;1.00;;;;;;6249188;28;20077;-88
2024/03/06 14:27:54;;;;;;;20.60;10.82;;;12.50;1.00;;;;;;6259505;28;20523;-88
2024/03/06 14:30:56;;;;;;;21.58;11.75;;;12.70;1.00;;;;;;6253074;28;20051;-85
2024/03/06 14:33:58;;;;;;;25.15;13.80;;;12.70;1.00;;;;;;6240836;28;20401;-85
2024/03/06 14:37:04;;;;;;;25.65;13.70;;;12.50;1.00;;;;;;6257688;28;20045;-87
2024/03/06 14:40:08;;;;;;;24.35;13.38;;;12.50;1.00;;;;;;6274236;28;20065;-88
2024/03/06 14:43:10;;;;;;;22.33;12.27;;;12.50;1.00;;;;;;6228806;28;20472;-88
2024/03/06 14:46:12;;;;;;;21.35;12.20;;;12.50;1.00;;;;;;6269233;28;20063;-83
2024/03/06 14:49:15;;;;;;;19.63;11.60;;;12.50;1.00;;;;;;6282994;28;20056;-88
2024/03/06 14:52:17;;;;;;;19.48;11.45;;;12.50;1.00;;;;;;6266097;28;20123;-90
2024/03/06 14:55:19;;;;;;;17.05;10.00;;;12.60;1.00;;;;;;6259732;28;20052;-88
2024/03/06 14:58:20;;;;;;;19.10;9.82;;;12.60;1.00;;;;;;6273592;28;20056;-89
2024/03/06 15:01:24;;;;;;;14.25;8.68;;;12.60;1.00;;;;;;6283389;28;20049;-87
2024/03/06 15:04:25;;;;;;;14.00;7.90;;;13.30;1.00;;;;;;6277869;28;20072;-85
2024/03/06 15:07:27;;;;;;;11.07;7.05;;;13.70;1.00;;;;;;6282465;28;20049;-94
2024/03/06 15:10:31;;;;;;;11.93;7.03;;;13.40;1.00;;;;;;6277477;28;20056;-91
2024/03/06 15:13:33;;;;;;;12.82;7.40;;;12.90;1.00;;;;;;6270181;28;20126;-92
2024/03/06 15:16:35;;;;;;;13.73;7.35;;;12.60;1.00;;;;;;6268988;28;20060;-87
2024/03/06 15:19:37;;;;;;;18.08;9.15;;;12.50;1.00;;;;;;6275235;28;20076;-84
2024/03/06 15:22:42;;;;;;;16.80;9.57;;;12.60;1.00;;;;;;6257973;28;20098;-86
2024/03/06 15:25:44;;;;;;;19.23;10.73;;;12.60;1.00;;;;;;6268090;28;20052;-92
2024/03/06 15:28:46;;;;;;;17.55;10.48;;;12.50;1.00;;;;;;6278180;28;20479;-89
2024/03/06 15:31:47;;;;;;;18.17;10.32;;;12.30;1.00;;;;;;6288676;28;20419;-89
2024/03/06 15:34:49;;;;;;;16.40;8.90;;;12.20;1.00;;;;;;6278957;28;20093;-89
2024/03/06 15:37:52;;;;;;;12.45;7.65;;;12.10;1.00;;;;;;6271450;28;20064;-86
2024/03/06 15:40:54;;;;;;;18.08;8.20;;;12.00;1.00;;;;;;6252588;28;20175;-86
2024/03/06 15:43:55;;;;;;;14.82;7.63;;;11.90;1.00;;;;;;6243313;28;20063;-85
2024/03/06 15:46:57;;;;;;;13.73;8.25;;;12.00;1.00;;;;;;6242786;28;20088;-85
2024/03/06 15:50:10;;;;;;;17.73;8.93;;;11.80;1.00;;;;;;6221681;28;20068;-86